sensor_id;sensor_type;location;lat;lon;timestamp;pressure;altitude;pressure_sealevel;temperature;humidity
58295;BME280;45705;55.592;37.460;2022-09-12T00:02:05;99357.28;;;9.07;97.17
58295;BME280;45705;55.592;37.460;2022-09-12T00:04:30;99356.56;;;9.21;96.66
58295;BME280;45705;55.592;37.460;2022-09-12T00:06:56;99356.56;;;9.21;95.42
58295;BME280;45705;55.592;37.460;2022-09-12T00:09:22;99351.44;;;9.19;95.32
58295;BME280;45705;55.592;37.460;2022-09-12T00:11:48;99345.09;;;9.05;96.87
58295;BME280;45705;55.592;37.460;2022-09-12T00:14:17;99337.19;;;9.09;96.57
58295;BME280;45705;55.592;37.460;2022-09-12T00:16:43;99341.75;;;9.13;97.45
58295;BME280;45705;55.592;37.460;2022-09-12T00:19:10;99340.19;;;9.07;97.51
58295;BME280;45705;55.592;37.460;2022-09-12T00:21:38;99326.41;;;9.22;97.53
58295;BME280;45705;55.592;37.460;2022-09-12T00:24:05;99326.63;;;9.26;96.25
58295;BME280;45705;55.592;37.460;2022-09-12T00:26:31;99321.50;;;9.24;96.03
58295;BME280;45705;55.592;37.460;2022-09-12T00:28:57;99327.38;;;9.13;96.83
58295;BME280;45705;55.592;37.460;2022-09-12T00:31:24;99326.50;;;9.17;97.61
58295;BME280;45705;55.592;37.460;2022-09-12T00:33:51;99320.63;;;9.29;97.21
58295;BME280;45705;55.592;37.460;2022-09-12T00:36:22;99315.66;;;9.50;96.25
58295;BME280;45705;55.592;37.460;2022-09-12T00:38:49;99323.41;;;9.24;97.75
58295;BME280;45705;55.592;37.460;2022-09-12T00:43:48;99322.53;;;9.10;99.60
58295;BME280;45705;55.592;37.460;2022-09-12T00:48:56;99319.75;;;9.15;100.00
58295;BME280;45705;55.592;37.460;2022-09-12T00:51:23;99308.03;;;9.00;100.00
58295;BME280;45705;55.592;37.460;2022-09-12T00:53:51;99313.06;;;9.07;100.00
58295;BME280;45705;55.592;37.460;2022-09-12T00:56:18;99314.47;;;9.04;100.00
58295;BME280;45705;55.592;37.460;2022-09-12T00:59:08;99304.19;;;9.01;100.00
58295;BME280;45705;55.592;37.460;2022-09-12T01:01:37;99309.56;;;9.06;100.00
58295;BME280;45705;55.592;37.460;2022-09-12T01:04:03;99287.41;;;8.99;100.00
58295;BME280;45705;55.592;37.460;2022-09-12T01:06:34;99309.28;;;9.08;100.00
58295;BME280;45705;55.592;37.460;2022-09-12T01:09:02;99298.78;;;9.01;100.00
58295;BME280;45705;55.592;37.460;2022-09-12T01:11:31;99306.69;;;9.17;100.00
58295;BME280;45705;55.592;37.460;2022-09-12T01:13:58;99308.09;;;9.14;100.00
58295;BME280;45705;55.592;37.460;2022-09-12T01:16:24;99301.25;;;9.17;100.00
58295;BME280;45705;55.592;37.460;2022-09-12T01:27:18;99308.41;;;8.94;100.00
58295;BME280;45705;55.592;37.460;2022-09-12T01:30:03;99297.25;;;9.14;100.00
58295;BME280;45705;55.592;37.460;2022-09-12T01:38:24;99302.59;;;9.00;100.00
58295;BME280;45705;55.592;37.460;2022-09-12T01:41:01;99302.03;;;9.03;100.00
58295;BME280;45705;55.592;37.460;2022-09-12T01:43:39;99298.38;;;8.94;100.00
58295;BME280;45705;55.592;37.460;2022-09-12T01:48:46;99292.50;;;8.87;100.00
58295;BME280;45705;55.592;37.460;2022-09-12T01:51:24;99298.38;;;8.94;100.00
58295;BME280;45705;55.592;37.460;2022-09-12T01:54:00;99302.16;;;8.93;100.00
58295;BME280;45705;55.592;37.460;2022-09-12T01:56:33;99295.25;;;8.82;100.00
58295;BME280;45705;55.592;37.460;2022-09-12T01:59:10;99295.78;;;8.84;100.00
58295;BME280;45705;55.592;37.460;2022-09-12T02:01:50;99290.44;;;8.79;100.00
58295;BME280;45705;55.592;37.460;2022-09-12T02:04:26;99293.44;;;8.77;100.00
58295;BME280;45705;55.592;37.460;2022-09-12T02:07:12;99298.19;;;8.66;100.00
58295;BME280;45705;55.592;37.460;2022-09-12T02:09:51;99295.56;;;8.61;100.00
58295;BME280;45705;55.592;37.460;2022-09-12T02:12:23;99289.34;;;8.61;100.00
58295;BME280;45705;55.592;37.460;2022-09-12T02:14:54;99290.59;;;8.69;100.00
58295;BME280;45705;55.592;37.460;2022-09-12T02:17:23;99289.34;;;8.61;100.00
58295;BME280;45705;55.592;37.460;2022-09-12T02:20:09;99283.69;;;8.57;100.00
58295;BME280;45705;55.592;37.460;2022-09-12T02:22:37;99285.75;;;8.65;100.00
58295;BME280;45705;55.592;37.460;2022-09-12T02:25:04;99296.13;;;8.58;100.00
58295;BME280;45705;55.592;37.460;2022-09-12T02:27:37;99292.84;;;8.61;100.00
58295;BME280;45705;55.592;37.460;2022-09-12T02:30:06;99287.94;;;8.63;100.00
58295;BME280;45705;55.592;37.460;2022-09-12T02:35:24;99287.50;;;8.75;100.00
58295;BME280;45705;55.592;37.460;2022-09-12T02:40:29;99289.91;;;8.58;100.00
58295;BME280;45705;55.592;37.460;2022-09-12T02:42:56;99292.09;;;8.56;100.00
58295;BME280;45705;55.592;37.460;2022-09-12T02:45:22;99289.34;;;8.61;100.00
58295;BME280;45705;55.592;37.460;2022-09-12T02:48:01;99285.88;;;8.55;100.00
58295;BME280;45705;55.592;37.460;2022-09-12T02:50:30;99286.84;;;8.45;100.00
58295;BME280;45705;55.592;37.460;2022-09-12T02:52:57;99292.34;;;8.59;100.00
58295;BME280;45705;55.592;37.460;2022-09-12T02:55:31;99294.81;;;8.56;100.00
58295;BME280;45705;55.592;37.460;2022-09-12T02:58:00;99291.31;;;8.55;100.00
58295;BME280;45705;55.592;37.460;2022-09-12T03:00:30;99293.63;;;8.43;100.00
58295;BME280;45705;55.592;37.460;2022-09-12T03:05:57;99292.91;;;8.56;100.00
58295;BME280;45705;55.592;37.460;2022-09-12T03:08:49;99294.06;;;8.50;100.00
58295;BME280;45705;55.592;37.460;2022-09-12T03:14:13;99299.13;;;8.57;100.00
58295;BME280;45705;55.592;37.460;2022-09-12T03:20:06;99294.03;;;8.55;100.00
58295;BME280;45705;55.592;37.460;2022-09-12T03:22:34;99297.31;;;8.52;100.00
58295;BME280;45705;55.592;37.460;2022-09-12T03:27:45;99296.84;;;8.45;100.00
58295;BME280;45705;55.592;37.460;2022-09-12T03:30:15;99293.03;;;8.46;100.00
58295;BME280;45705;55.592;37.460;2022-09-12T03:32:47;99291.38;;;8.50;100.00
58295;BME280;45705;55.592;37.460;2022-09-12T03:35:14;99296.13;;;8.58;100.00
58295;BME280;45705;55.592;37.460;2022-09-12T03:37:40;99293.03;;;8.46;100.00
58295;BME280;45705;55.592;37.460;2022-09-12T03:40:08;99287.28;;;8.28;100.00
58295;BME280;45705;55.592;37.460;2022-09-12T03:42:34;99286.59;;;8.42;100.00
58295;BME280;45705;55.592;37.460;2022-09-12T03:45:00;99288.31;;;8.33;100.00
58295;BME280;45705;55.592;37.460;2022-09-12T03:47:26;99294.88;;;8.26;100.00
58295;BME280;45705;55.592;37.460;2022-09-12T03:49:51;99283.44;;;8.29;100.00
58295;BME280;45705;55.592;37.460;2022-09-12T03:52:18;99269.75;;;8.21;100.00
58295;BME280;45705;55.592;37.460;2022-09-12T03:54:43;99266.25;;;8.20;100.00
58295;BME280;45705;55.592;37.460;2022-09-12T03:57:09;99266.13;;;8.31;100.00
58295;BME280;45705;55.592;37.460;2022-09-12T03:59:35;99269.34;;;8.33;100.00
58295;BME280;45705;55.592;37.460;2022-09-12T04:02:00;99269.84;;;8.35;100.00
58295;BME280;45705;55.592;37.460;2022-09-12T04:04:26;99277.19;;;8.34;100.00
58295;BME280;45705;55.592;37.460;2022-09-12T04:06:52;99268.47;;;8.37;100.00
58295;BME280;45705;55.592;37.460;2022-09-12T04:09:18;99274.09;;;8.41;100.00
58295;BME280;45705;55.592;37.460;2022-09-12T04:11:43;99265.34;;;8.49;100.00
58295;BME280;45705;55.592;37.460;2022-09-12T04:14:09;99276.03;;;8.40;100.00
58295;BME280;45705;55.592;37.460;2022-09-12T04:16:35;99278.34;;;8.52;100.00
58295;BME280;45705;55.592;37.460;2022-09-12T04:19:00;99279.00;;;8.44;100.00
58295;BME280;45705;55.592;37.460;2022-09-12T04:21:26;99275.75;;;8.42;100.00
58295;BME280;45705;55.592;37.460;2022-09-12T04:23:52;99277.91;;;8.64;100.00
58295;BME280;45705;55.592;37.460;2022-09-12T04:26:19;99282.81;;;8.62;100.00
58295;BME280;45705;55.592;37.460;2022-09-12T04:28:45;99269.69;;;8.50;100.00
58295;BME280;45705;55.592;37.460;2022-09-12T04:31:17;99273.09;;;8.61;100.00
58295;BME280;45705;55.592;37.460;2022-09-12T04:33:45;99281.56;;;8.54;100.00
58295;BME280;45705;55.592;37.460;2022-09-12T04:36:14;99268.75;;;8.60;100.00
58295;BME280;45705;55.592;37.460;2022-09-12T04:38:42;99275.06;;;8.55;100.00
58295;BME280;45705;55.592;37.460;2022-09-12T04:41:29;99281.50;;;8.59;100.00
58295;BME280;45705;55.592;37.460;2022-09-12T04:44:11;99265.59;;;8.53;100.00
58295;BME280;45705;55.592;37.460;2022-09-12T04:46:41;99273.88;;;8.61;100.00
58295;BME280;45705;55.592;37.460;2022-09-12T04:49:07;99262.59;;;8.54;100.00
58295;BME280;45705;55.592;37.460;2022-09-12T04:51:35;99269.47;;;8.65;100.00
58295;BME280;45705;55.592;37.460;2022-09-12T04:54:06;99269.41;;;8.71;100.00
58295;BME280;45705;55.592;37.460;2022-09-12T04:56:35;99261.47;;;8.74;100.00
58295;BME280;45705;55.592;37.460;2022-09-12T04:59:01;99265.53;;;8.77;100.00
58295;BME280;45705;55.592;37.460;2022-09-12T05:01:27;99262.44;;;8.64;100.00
58295;BME280;45705;55.592;37.460;2022-09-12T05:03:55;99263.50;;;8.69;100.00
58295;BME280;45705;55.592;37.460;2022-09-12T05:06:23;99260.69;;;8.74;100.00
58295;BME280;45705;55.592;37.460;2022-09-12T05:08:50;99268.47;;;8.80;100.00
58295;BME280;45705;55.592;37.460;2022-09-12T05:11:19;99274.81;;;8.90;100.00
58295;BME280;45705;55.592;37.460;2022-09-12T05:13:45;99273.28;;;8.83;100.00
58295;BME280;45705;55.592;37.460;2022-09-12T05:16:12;99273.16;;;8.75;100.00
58295;BME280;45705;55.592;37.460;2022-09-12T05:18:40;99262.72;;;8.82;100.00
58295;BME280;45705;55.592;37.460;2022-09-12T05:21:07;99278.88;;;8.73;100.00
58295;BME280;45705;55.592;37.460;2022-09-12T05:23:35;99262.72;;;8.82;100.00
58295;BME280;45705;55.592;37.460;2022-09-12T05:26:02;99264.75;;;8.76;100.00
58295;BME280;45705;55.592;37.460;2022-09-12T05:28:31;99286.72;;;8.75;100.00
58295;BME280;45705;55.592;37.460;2022-09-12T05:31:38;99257.75;;;8.89;100.00
58295;BME280;45705;55.592;37.460;2022-09-12T05:33:57;99279.94;;;8.91;100.00
58295;BME280;45705;55.592;37.460;2022-09-12T05:36:25;99264.81;;;8.90;100.00
58295;BME280;45705;55.592;37.460;2022-09-12T05:38:51;99260.00;;;9.01;100.00
58295;BME280;45705;55.592;37.460;2022-09-12T05:41:19;99263.00;;;8.99;100.00
58295;BME280;45705;55.592;37.460;2022-09-12T05:43:46;99262.88;;;9.10;100.00
58295;BME280;45705;55.592;37.460;2022-09-12T05:46:17;99256.88;;;9.26;100.00
58295;BME280;45705;55.592;37.460;2022-09-12T05:48:44;99262.00;;;9.28;100.00
58295;BME280;45705;55.592;37.460;2022-09-12T05:51:16;99263.53;;;9.34;100.00
58295;BME280;45705;55.592;37.460;2022-09-12T05:53:45;99257.53;;;9.37;100.00
58295;BME280;45705;55.592;37.460;2022-09-12T05:56:13;99255.91;;;9.36;100.00
58295;BME280;45705;55.592;37.460;2022-09-12T05:58:45;99254.13;;;9.45;100.00
58295;BME280;45705;55.592;37.460;2022-09-12T06:01:16;99261.06;;;9.52;100.00
58295;BME280;45705;55.592;37.460;2022-09-12T06:03:43;99257.34;;;9.48;100.00
58295;BME280;45705;55.592;37.460;2022-09-12T06:06:10;99250.47;;;9.36;100.00
58295;BME280;45705;55.592;37.460;2022-09-12T06:08:41;99238.84;;;9.50;100.00
58295;BME280;45705;55.592;37.460;2022-09-12T06:11:09;99240.91;;;9.58;100.00
58295;BME280;45705;55.592;37.460;2022-09-12T06:13:37;99248.16;;;9.76;100.00
58295;BME280;45705;55.592;37.460;2022-09-12T06:16:06;99246.75;;;9.93;100.00
58295;BME280;45705;55.592;37.460;2022-09-12T06:18:36;99237.69;;;10.11;100.00
58295;BME280;45705;55.592;37.460;2022-09-12T06:21:07;99244.63;;;10.17;100.00
58295;BME280;45705;55.592;37.460;2022-09-12T06:23:33;99244.94;;;10.16;100.00
58295;BME280;45705;55.592;37.460;2022-09-12T06:25:59;99244.53;;;10.22;100.00
58295;BME280;45705;55.592;37.460;2022-09-12T06:28:25;99246.13;;;10.23;100.00
58295;BME280;45705;55.592;37.460;2022-09-12T06:30:51;99242.81;;;10.27;100.00
58295;BME280;45705;55.592;37.460;2022-09-12T06:33:17;99247.03;;;10.19;100.00
58295;BME280;45705;55.592;37.460;2022-09-12T06:35:43;99244.63;;;10.17;100.00
58295;BME280;45705;55.592;37.460;2022-09-12T06:38:09;99246.34;;;10.13;100.00
58295;BME280;45705;55.592;37.460;2022-09-12T06:40:41;99250.38;;;10.30;100.00
58295;BME280;45705;55.592;37.460;2022-09-12T06:43:12;99252.97;;;10.49;99.72
58295;BME280;45705;55.592;37.460;2022-09-12T06:45:48;99255.13;;;10.38;98.75
58295;BME280;45705;55.592;37.460;2022-09-12T06:48:14;99261.44;;;10.47;98.62
58295;BME280;45705;55.592;37.460;2022-09-12T06:50:39;99259.84;;;10.32;96.80
58295;BME280;45705;55.592;37.460;2022-09-12T06:53:06;99261.44;;;10.47;95.24
58295;BME280;45705;55.592;37.460;2022-09-12T06:55:32;99258.03;;;10.41;95.02
58295;BME280;45705;55.592;37.460;2022-09-12T06:57:58;99263.94;;;10.57;94.72
58295;BME280;45705;55.592;37.460;2022-09-12T07:00:24;99264.53;;;10.54;96.12
58295;BME280;45705;55.592;37.460;2022-09-12T07:02:56;99263.22;;;10.66;94.40
58295;BME280;45705;55.592;37.460;2022-09-12T07:05:21;99260.19;;;10.67;93.23
58295;BME280;45705;55.592;37.460;2022-09-12T07:07:47;99256.53;;;10.72;92.77
58295;BME280;45705;55.592;37.460;2022-09-12T07:10:13;99260.09;;;10.72;91.75
58295;BME280;45705;55.592;37.460;2022-09-12T07:12:39;99269.16;;;10.68;91.64
58295;BME280;45705;55.592;37.460;2022-09-12T07:15:05;99276.84;;;10.38;92.55
58295;BME280;45705;55.592;37.460;2022-09-12T07:17:31;99273.91;;;10.48;93.32
58295;BME280;45705;55.592;37.460;2022-09-12T07:19:56;99281.16;;;10.39;93.07
58295;BME280;45705;55.592;37.460;2022-09-12T07:22:22;99274.72;;;10.35;93.76
58295;BME280;45705;55.592;37.460;2022-09-12T07:24:48;99279.94;;;10.17;94.13
58295;BME280;45705;55.592;37.460;2022-09-12T07:27:15;99275.56;;;10.35;94.10
58295;BME280;45705;55.592;37.460;2022-09-12T07:29:40;99263.03;;;10.48;93.89
58295;BME280;45705;55.592;37.460;2022-09-12T07:32:06;99276.53;;;10.53;94.03
58295;BME280;45705;55.592;37.460;2022-09-12T07:34:33;99275.94;;;10.42;93.97
58295;BME280;45705;55.592;37.460;2022-09-12T07:36:59;99284.47;;;10.63;93.49
58295;BME280;45705;55.592;37.460;2022-09-12T07:39:24;99286.59;;;10.67;93.81
58295;BME280;45705;55.592;37.460;2022-09-12T07:41:50;99289.00;;;10.54;93.46
58295;BME280;45705;55.592;37.460;2022-09-12T07:44:16;99279.56;;;10.38;92.72
58295;BME280;45705;55.592;37.460;2022-09-12T07:46:41;99284.91;;;10.43;93.24
58295;BME280;45705;55.592;37.460;2022-09-12T07:49:07;99292.22;;;10.56;93.66
58295;BME280;45705;55.592;37.460;2022-09-12T07:51:33;99298.88;;;10.50;92.56
58295;BME280;45705;55.592;37.460;2022-09-12T07:53:58;99286.94;;;10.74;91.75
58295;BME280;45705;55.592;37.460;2022-09-12T07:56:25;99286.19;;;10.59;92.26
58295;BME280;45705;55.592;37.460;2022-09-12T07:58:53;99279.81;;;10.78;92.58
58295;BME280;45705;55.592;37.460;2022-09-12T08:01:20;99276.22;;;10.91;91.86
58295;BME280;45705;55.592;37.460;2022-09-12T08:03:48;99284.75;;;10.62;91.23
58295;BME280;45705;55.592;37.460;2022-09-12T08:06:19;99287.38;;;10.67;92.22
58295;BME280;45705;55.592;37.460;2022-09-12T08:08:46;99281.25;;;10.98;91.25
58295;BME280;45705;55.592;37.460;2022-09-12T08:11:14;99281.91;;;10.81;91.34
58295;BME280;45705;55.592;37.460;2022-09-12T08:13:41;99301.69;;;10.73;91.35
58295;BME280;45705;55.592;37.460;2022-09-12T08:16:11;99302.22;;;10.47;92.10
58295;BME280;45705;55.592;37.460;2022-09-12T08:18:37;99285.75;;;10.66;92.23
58295;BME280;45705;55.592;37.460;2022-09-12T08:21:06;99279.81;;;10.64;91.39
58295;BME280;45705;55.592;37.460;2022-09-12T08:23:33;99284.38;;;10.69;90.05
58295;BME280;45705;55.592;37.460;2022-09-12T08:26:03;99267.75;;;10.93;90.94
58295;BME280;45705;55.592;37.460;2022-09-12T08:28:31;99282.41;;;10.83;90.67
58295;BME280;45705;55.592;37.460;2022-09-12T08:31:02;99269.03;;;10.73;90.60
58295;BME280;45705;55.592;37.460;2022-09-12T08:33:28;99291.63;;;10.59;89.98
58295;BME280;45705;55.592;37.460;2022-09-12T08:36:04;99284.06;;;10.70;89.67
58295;BME280;45705;55.592;37.460;2022-09-12T08:38:31;99274.53;;;10.81;89.46
58295;BME280;45705;55.592;37.460;2022-09-12T08:41:25;99274.63;;;10.90;88.64
58295;BME280;45705;55.592;37.460;2022-09-12T08:52:35;99275.75;;;11.12;85.47
58295;BME280;45705;55.592;37.460;2022-09-12T08:55:05;99273.34;;;11.10;84.43
58295;BME280;45705;55.592;37.460;2022-09-12T08:57:36;99256.16;;;11.23;83.48
58295;BME280;45705;55.592;37.460;2022-09-12T09:00:03;99262.50;;;11.41;82.47
58295;BME280;45705;55.592;37.460;2022-09-12T09:02:57;99266.16;;;11.37;82.02
58295;BME280;45705;55.592;37.460;2022-09-12T09:05:50;99269.94;;;11.50;79.48
58295;BME280;45705;55.592;37.460;2022-09-12T09:16:49;99270.78;;;11.90;75.23
58295;BME280;45705;55.592;37.460;2022-09-12T09:22:47;99256.38;;;11.90;75.96
58295;BME280;45705;55.592;37.460;2022-09-12T09:25:19;99268.13;;;12.08;75.07
58295;BME280;45705;55.592;37.460;2022-09-12T09:27:59;99168.06;;;11.51;74.78
58295;BME280;45705;55.592;37.460;2022-09-12T09:30:26;99246.88;;;12.18;72.82
58295;BME280;45705;55.592;37.460;2022-09-12T09:32:56;99256.75;;;12.06;72.89
58295;BME280;45705;55.592;37.460;2022-09-12T09:35:43;99261.75;;;12.12;72.13
58295;BME280;45705;55.592;37.460;2022-09-12T09:43:31;99276.72;;;12.24;71.02
58295;BME280;45705;55.592;37.460;2022-09-12T09:45:57;99281.69;;;12.21;70.82
58295;BME280;45705;55.592;37.460;2022-09-12T09:50:53;99268.75;;;11.96;72.62
58295;BME280;45705;55.592;37.460;2022-09-12T09:53:50;99265.94;;;12.18;72.47
58295;BME280;45705;55.592;37.460;2022-09-12T09:56:31;99273.78;;;12.11;72.01
58295;BME280;45705;55.592;37.460;2022-09-12T09:59:27;99265.94;;;12.18;71.53
58295;BME280;45705;55.592;37.460;2022-09-12T10:01:56;99263.50;;;12.08;72.21
58295;BME280;45705;55.592;37.460;2022-09-12T10:04:29;99274.78;;;12.24;72.50
58295;BME280;45705;55.592;37.460;2022-09-12T10:06:58;99245.28;;;12.17;72.00
58295;BME280;45705;55.592;37.460;2022-09-12T10:11:52;99268.25;;;12.34;71.40
58295;BME280;45705;55.592;37.460;2022-09-12T10:16:51;99266.56;;;12.15;71.82
58295;BME280;45705;55.592;37.460;2022-09-12T10:19:23;99277.34;;;12.20;71.64
58295;BME280;45705;55.592;37.460;2022-09-12T10:21:58;99268.31;;;12.11;71.41
58295;BME280;45705;55.592;37.460;2022-09-12T10:24:34;99259.88;;;12.21;71.56
58295;BME280;45705;55.592;37.460;2022-09-12T10:29:43;99242.94;;;12.51;70.50
58295;BME280;45705;55.592;37.460;2022-09-12T10:32:41;99263.09;;;12.24;70.25
58295;BME280;45705;55.592;37.460;2022-09-12T10:35:19;99285.66;;;12.15;70.92
58295;BME280;45705;55.592;37.460;2022-09-12T10:41:16;99270.81;;;12.39;70.81
58295;BME280;45705;55.592;37.460;2022-09-12T10:43:42;99255.41;;;12.26;71.16
58295;BME280;45705;55.592;37.460;2022-09-12T10:48:44;99254.97;;;12.67;69.63
58295;BME280;45705;55.592;37.460;2022-09-12T10:53:48;99246.28;;;12.39;71.23
58295;BME280;45705;55.592;37.460;2022-09-12T10:56:18;99247.28;;;12.78;70.20
58295;BME280;45705;55.592;37.460;2022-09-12T10:59:02;99241.84;;;12.95;69.11
58295;BME280;45705;55.592;37.460;2022-09-12T11:04:18;99242.44;;;13.27;68.12
58295;BME280;45705;55.592;37.460;2022-09-12T11:14:40;99256.91;;;13.36;66.36
58295;BME280;45705;55.592;37.460;2022-09-12T11:20:53;99248.56;;;13.24;65.60
58295;BME280;45705;55.592;37.460;2022-09-12T11:33:52;99254.66;;;12.86;66.75
58295;BME280;45705;55.592;37.460;2022-09-12T11:36:29;99250.03;;;12.78;67.78
58295;BME280;45705;55.592;37.460;2022-09-12T11:39:05;99244.53;;;12.69;67.87
58295;BME280;45705;55.592;37.460;2022-09-12T11:41:37;99237.47;;;12.94;67.17
58295;BME280;45705;55.592;37.460;2022-09-12T11:44:32;99248.59;;;12.89;66.87
58295;BME280;45705;55.592;37.460;2022-09-12T11:46:59;99251.78;;;12.91;66.08
58295;BME280;45705;55.592;37.460;2022-09-12T11:49:33;99240.69;;;12.79;65.33
58295;BME280;45705;55.592;37.460;2022-09-12T11:52:12;99217.91;;;13.01;65.48
58295;BME280;45705;55.592;37.460;2022-09-12T11:57:11;99241.03;;;13.04;65.50
58295;BME280;45705;55.592;37.460;2022-09-12T11:59:45;99233.16;;;12.93;65.28
58295;BME280;45705;55.592;37.460;2022-09-12T12:02:21;99229.97;;;12.74;64.08
58295;BME280;45705;55.592;37.460;2022-09-12T12:07:41;99225.75;;;12.85;64.31
58295;BME280;45705;55.592;37.460;2022-09-12T12:13:14;99219.16;;;13.12;63.54
58295;BME280;45705;55.592;37.460;2022-09-12T12:21:43;99220.47;;;12.89;62.93
58295;BME280;45705;55.592;37.460;2022-09-12T12:34:27;99225.94;;;12.97;61.06
58295;BME280;45705;55.592;37.460;2022-09-12T12:36:53;99213.09;;;12.98;61.56
58295;BME280;45705;55.592;37.460;2022-09-12T12:42:08;99202.97;;;12.98;61.04
58295;BME280;45705;55.592;37.460;2022-09-12T12:47:16;99195.25;;;13.00;61.07
58295;BME280;45705;55.592;37.460;2022-09-12T12:49:49;99195.25;;;13.00;60.61
58295;BME280;45705;55.592;37.460;2022-09-12T12:52:17;99203.44;;;13.00;61.10
58295;BME280;45705;55.592;37.460;2022-09-12T12:57:26;99200.56;;;13.06;60.91
58295;BME280;45705;55.592;37.460;2022-09-12T13:02:24;99198.47;;;13.03;61.37
58295;BME280;45705;55.592;37.460;2022-09-12T13:04:52;99187.53;;;13.03;61.89
58295;BME280;45705;55.592;37.460;2022-09-12T13:07:30;99195.56;;;13.08;59.72
58295;BME280;45705;55.592;37.460;2022-09-12T13:09:59;99202.66;;;12.91;61.03
58295;BME280;45705;55.592;37.460;2022-09-12T13:12:29;99200.06;;;13.04;60.94
58295;BME280;45705;55.592;37.460;2022-09-12T13:14:59;99209.53;;;13.06;61.83
58295;BME280;45705;55.592;37.460;2022-09-12T13:17:34;99213.44;;;12.88;61.26
58295;BME280;45705;55.592;37.460;2022-09-12T13:22:38;99201.06;;;12.90;62.20
58295;BME280;45705;55.592;37.460;2022-09-12T13:28:06;99191.44;;;12.84;62.22
58295;BME280;45705;55.592;37.460;2022-09-12T13:33:45;99204.28;;;12.75;62.13
58295;BME280;45705;55.592;37.460;2022-09-12T13:39:26;99197.53;;;12.81;61.60
58295;BME280;45705;55.592;37.460;2022-09-12T13:44:21;99197.22;;;12.91;61.23
58295;BME280;45705;55.592;37.460;2022-09-12T13:46:49;99211.00;;;12.86;61.58
58295;BME280;45705;55.592;37.460;2022-09-12T13:49:20;99194.81;;;12.72;61.07
58295;BME280;45705;55.592;37.460;2022-09-12T13:52:00;99197.69;;;12.67;61.53
58295;BME280;45705;55.592;37.460;2022-09-12T13:54:26;99186.97;;;12.62;61.95
58295;BME280;45705;55.592;37.460;2022-09-12T13:56:52;99185.34;;;12.70;61.44
58295;BME280;45705;55.592;37.460;2022-09-12T13:59:18;99190.47;;;12.71;61.39
58295;BME280;45705;55.592;37.460;2022-09-12T14:01:45;99175.06;;;12.67;62.12
58295;BME280;45705;55.592;37.460;2022-09-12T14:04:25;99194.13;;;12.93;62.46
58295;BME280;45705;55.592;37.460;2022-09-12T14:07:19;99200.59;;;12.79;62.02
58295;BME280;45705;55.592;37.460;2022-09-12T14:09:57;99213.22;;;13.19;60.17
58295;BME280;45705;55.592;37.460;2022-09-12T14:12:27;99196.41;;;12.82;61.20
58295;BME280;45705;55.592;37.460;2022-09-12T14:14:55;99202.69;;;12.74;62.02
58295;BME280;45705;55.592;37.460;2022-09-12T14:17:32;99202.66;;;12.83;62.37
58295;BME280;45705;55.592;37.460;2022-09-12T14:20:04;99194.50;;;12.74;62.40
58295;BME280;45705;55.592;37.460;2022-09-12T14:22:32;99197.69;;;12.58;62.44
58295;BME280;45705;55.592;37.460;2022-09-12T14:24:59;99196.56;;;12.59;62.40
58295;BME280;45705;55.592;37.460;2022-09-12T14:27:30;99195.94;;;12.63;62.21
58295;BME280;45705;55.592;37.460;2022-09-12T14:30:07;99194.31;;;12.61;62.64
58295;BME280;45705;55.592;37.460;2022-09-12T14:32:34;99214.38;;;12.57;62.51
58295;BME280;45705;55.592;37.460;2022-09-12T14:35:17;99193.19;;;12.54;62.97
58295;BME280;45705;55.592;37.460;2022-09-12T14:37:47;99196.25;;;12.52;63.48
58295;BME280;45705;55.592;37.460;2022-09-12T14:40:17;99179.88;;;12.35;63.56
58295;BME280;45705;55.592;37.460;2022-09-12T14:42:43;99201.84;;;12.47;63.94
58295;BME280;45705;55.592;37.460;2022-09-12T14:45:50;99210.00;;;12.38;64.18
58295;BME280;45705;55.592;37.460;2022-09-12T14:48:16;99203.63;;;12.43;64.07
58295;BME280;45705;55.592;37.460;2022-09-12T14:50:48;99206.84;;;12.45;64.04
58295;BME280;45705;55.592;37.460;2022-09-12T14:56:12;99215.16;;;12.40;64.18
58295;BME280;45705;55.592;37.460;2022-09-12T14:58:39;99204.91;;;12.37;64.77
58295;BME280;45705;55.592;37.460;2022-09-12T15:03:33;99217.22;;;12.26;65.07
58295;BME280;45705;55.592;37.460;2022-09-12T15:06:00;99204.22;;;12.23;64.85
58295;BME280;45705;55.592;37.460;2022-09-12T15:08:28;99203.88;;;12.15;65.51
58295;BME280;45705;55.592;37.460;2022-09-12T15:10:54;99214.78;;;12.15;64.65
58295;BME280;45705;55.592;37.460;2022-09-12T15:13:22;99203.25;;;12.18;65.03
58295;BME280;45705;55.592;37.460;2022-09-12T15:15:54;99206.28;;;12.17;65.49
58295;BME280;45705;55.592;37.460;2022-09-12T15:18:23;99209.31;;;12.15;65.74
58295;BME280;45705;55.592;37.460;2022-09-12T15:20:52;99218.94;;;12.04;66.47
58295;BME280;45705;55.592;37.460;2022-09-12T15:23:35;99210.91;;;11.99;67.16
58295;BME280;45705;55.592;37.460;2022-09-12T15:26:03;99213.13;;;11.97;67.19
58295;BME280;45705;55.592;37.460;2022-09-12T15:28:29;99208.88;;;11.82;67.54
58295;BME280;45705;55.592;37.460;2022-09-12T15:30:56;99224.44;;;11.81;67.54
58295;BME280;45705;55.592;37.460;2022-09-12T15:33:24;99222.81;;;11.80;67.21
58295;BME280;45705;55.592;37.460;2022-09-12T15:35:51;99227.44;;;11.71;66.61
58295;BME280;45705;55.592;37.460;2022-09-12T15:38:17;99232.88;;;11.71;65.83
58295;BME280;45705;55.592;37.460;2022-09-12T15:40:43;99229.69;;;11.69;64.94
58295;BME280;45705;55.592;37.460;2022-09-12T15:43:13;99227.06;;;11.64;65.02
58295;BME280;45705;55.592;37.460;2022-09-12T15:45:41;99225.47;;;11.63;65.89
58295;BME280;45705;55.592;37.460;2022-09-12T15:48:07;99229.94;;;11.59;66.58
58295;BME280;45705;55.592;37.460;2022-09-12T15:50:34;99229.94;;;11.59;66.67